createdAt,value
2023-05-21T00:01:21.195Z,14.15
2023-05-21T00:03:53.384Z,14.15
2023-05-21T00:06:25.403Z,14.14
2023-05-21T00:08:57.034Z,14.14
2023-05-21T00:11:28.561Z,14.14
2023-05-21T00:14:00.282Z,14.13
2023-05-21T00:16:32.231Z,14.11
2023-05-21T00:19:03.845Z,14.10
2023-05-21T00:21:35.415Z,14.11
2023-05-21T00:24:07.780Z,14.10
2023-05-21T00:26:39.436Z,14.11
2023-05-21T00:29:11.317Z,14.11
2023-05-21T00:31:42.977Z,14.11
2023-05-21T00:34:15.268Z,14.11
2023-05-21T00:36:47.537Z,14.11
2023-05-21T00:39:19.376Z,14.12
2023-05-21T00:41:51.062Z,14.13
2023-05-21T00:44:23.655Z,14.13
2023-05-21T00:46:55.397Z,14.15
2023-05-21T00:49:26.986Z,14.16
2023-05-21T00:52:01.587Z,14.19
2023-05-21T00:54:33.341Z,14.21
2023-05-21T00:57:06.027Z,14.23
2023-05-21T00:59:37.945Z,14.26
2023-05-21T01:02:09.611Z,14.28
2023-05-21T01:04:41.289Z,14.31
2023-05-21T01:07:13.329Z,14.33
2023-05-21T01:09:45.124Z,14.34
2023-05-21T01:12:16.891Z,14.37
2023-05-21T01:14:49.024Z,14.39
2023-05-21T01:17:24.253Z,14.40
2023-05-21T01:19:56.880Z,14.41
2023-05-21T01:22:29.750Z,14.43
2023-05-21T01:25:02.910Z,14.46
2023-05-21T01:27:34.586Z,14.47
2023-05-21T01:30:08.373Z,14.48
2023-05-21T01:32:49.041Z,14.49
2023-05-21T01:35:25.051Z,14.49
2023-05-21T01:38:03.756Z,14.49
2023-05-21T01:40:42.107Z,14.48
2023-05-21T01:43:15.323Z,14.48
2023-05-21T01:45:48.455Z,14.48
2023-05-21T01:48:21.104Z,14.49
2023-05-21T01:50:55.276Z,14.49
2023-05-21T01:53:27.031Z,14.51
2023-05-21T01:55:59.304Z,14.51
2023-05-21T01:58:31.243Z,14.52
2023-05-21T02:01:03.807Z,14.52
2023-05-21T02:03:35.769Z,14.53
2023-05-21T02:06:07.489Z,14.53
2023-05-21T02:08:39.528Z,14.53
2023-05-21T02:11:11.036Z,14.54
2023-05-21T02:13:42.991Z,14.54
2023-05-21T02:16:15.947Z,14.54
2023-05-21T02:18:51.260Z,14.53
2023-05-21T02:21:22.861Z,14.54
2023-05-21T02:23:54.423Z,14.56
2023-05-21T02:26:26.131Z,14.56
2023-05-21T02:28:57.986Z,14.56
2023-05-21T02:31:29.690Z,14.58
2023-05-21T02:34:01.573Z,14.58
2023-05-21T02:36:33.260Z,14.57
2023-05-21T02:39:05.017Z,14.58
2023-05-21T02:41:37.667Z,14.57
2023-05-21T02:44:09.682Z,14.57
2023-05-21T02:46:41.405Z,14.57
2023-05-21T02:49:13.218Z,14.57
2023-05-21T02:51:46.042Z,14.57
2023-05-21T02:54:17.725Z,14.56
2023-05-21T02:56:49.344Z,14.55
2023-05-21T02:59:20.940Z,14.55
2023-05-21T03:01:52.734Z,14.55
2023-05-21T03:04:25.154Z,14.53
2023-05-21T03:06:57.376Z,14.53
2023-05-21T03:09:29.038Z,14.54
2023-05-21T03:12:01.594Z,14.53
2023-05-21T03:14:33.837Z,14.52
2023-05-21T03:17:06.254Z,14.52
2023-05-21T03:19:38.247Z,14.50
2023-05-21T03:22:11.329Z,14.49
2023-05-21T03:24:42.891Z,14.48
2023-05-21T03:27:14.438Z,14.48
2023-05-21T03:29:47.906Z,14.48
2023-05-21T03:32:19.893Z,14.48
2023-05-21T03:34:52.482Z,14.49
2023-05-21T03:37:24.150Z,14.48
2023-05-21T03:39:55.799Z,14.48
2023-05-21T03:42:27.420Z,14.48
2023-05-21T03:44:59.733Z,14.49
2023-05-21T03:47:51.632Z,14.49
2023-05-21T03:50:23.306Z,14.48
2023-05-21T03:52:55.042Z,14.48
2023-05-21T03:55:26.768Z,14.47
2023-05-21T03:57:58.626Z,14.48
2023-05-21T04:00:30.291Z,14.47
2023-05-21T04:03:02.370Z,14.49
2023-05-21T04:05:34.593Z,14.51
2023-05-21T04:08:06.807Z,14.53
2023-05-21T04:10:38.361Z,14.55
2023-05-21T04:13:10.010Z,14.55
2023-05-21T04:15:43.642Z,14.56
2023-05-21T04:18:16.600Z,14.56
2023-05-21T04:20:49.965Z,14.57
2023-05-21T04:23:23.553Z,14.59
2023-05-21T04:25:55.774Z,14.62
2023-05-21T04:28:28.943Z,14.68
2023-05-21T04:31:01.370Z,14.70
2023-05-21T04:33:33.547Z,14.77
2023-05-21T04:36:05.736Z,14.96
2023-05-21T04:38:38.298Z,15.11
2023-05-21T04:41:10.966Z,15.19
2023-05-21T04:43:44.015Z,15.30
2023-05-21T04:46:16.167Z,15.56
2023-05-21T04:48:47.927Z,15.97
2023-05-21T04:51:19.531Z,16.25
2023-05-21T04:53:51.392Z,16.40
2023-05-21T04:56:23.500Z,16.55
2023-05-21T04:58:55.407Z,16.63
2023-05-21T05:01:29.227Z,16.79
2023-05-21T05:04:01.160Z,16.91
2023-05-21T05:06:33.009Z,17.07
2023-05-21T05:09:04.850Z,17.43
2023-05-21T05:11:36.680Z,17.91
2023-05-21T05:14:09.406Z,18.33
2023-05-21T05:16:41.307Z,18.66
2023-05-21T05:19:13.024Z,19.12
2023-05-21T05:21:44.633Z,19.57
2023-05-21T05:24:17.219Z,20.05
2023-05-21T05:26:49.120Z,20.49
2023-05-21T05:29:21.021Z,20.91
2023-05-21T05:31:52.737Z,21.16
2023-05-21T05:34:24.293Z,21.30
2023-05-21T05:36:57.262Z,21.47
2023-05-21T05:39:29.062Z,21.81
2023-05-21T05:42:00.621Z,22.07
2023-05-21T05:44:32.345Z,22.15
2023-05-21T05:47:09.155Z,22.39
2023-05-21T05:49:40.754Z,22.48
2023-05-21T05:52:12.320Z,22.94
2023-05-21T05:54:43.931Z,23.23
2023-05-21T05:57:15.635Z,23.61
2023-05-21T05:59:50.219Z,23.83
2023-05-21T06:02:22.042Z,24.20
2023-05-21T06:04:53.913Z,24.39
2023-05-21T06:07:25.562Z,24.52
2023-05-21T06:09:57.128Z,24.69
2023-05-21T06:12:28.968Z,24.90
2023-05-21T06:15:00.822Z,25.21
2023-05-21T06:17:33.761Z,25.28
2023-05-21T06:20:06.217Z,25.39
2023-05-21T06:22:37.967Z,25.41
2023-05-21T06:25:11.814Z,25.42
2023-05-21T06:27:43.600Z,25.52
2023-05-21T06:30:21.183Z,25.76
2023-05-21T06:32:52.994Z,26.01
2023-05-21T06:35:24.731Z,25.92
2023-05-21T06:37:56.363Z,25.70
2023-05-21T06:40:27.943Z,25.63
2023-05-21T06:42:59.962Z,25.78
2023-05-21T06:45:54.561Z,26.26
2023-05-21T06:48:38.719Z,26.50
2023-05-21T06:51:10.394Z,26.37
2023-05-21T06:53:42.214Z,26.17
2023-05-21T06:56:14.057Z,26.05
2023-05-21T06:58:47.625Z,26.26
2023-05-21T07:01:22.476Z,26.52
2023-05-21T07:03:54.409Z,26.63
2023-05-21T07:06:26.304Z,26.66
2023-05-21T07:08:57.909Z,26.54
2023-05-21T07:11:29.625Z,26.61
2023-05-21T07:14:02.471Z,26.45
2023-05-21T07:16:35.277Z,26.01
2023-05-21T07:19:07.192Z,25.50
2023-05-21T07:21:39.157Z,25.27
2023-05-21T07:24:11.728Z,25.01
2023-05-21T07:26:44.773Z,24.65
2023-05-21T07:29:16.632Z,24.36
2023-05-21T07:31:48.742Z,24.05
2023-05-21T07:34:20.713Z,23.75
2023-05-21T07:36:52.388Z,23.49
2023-05-21T07:39:24.586Z,23.21
2023-05-21T07:41:57.172Z,22.91
2023-05-21T07:44:28.999Z,22.65
2023-05-21T07:47:01.606Z,22.56
2023-05-21T07:49:33.611Z,22.45
2023-05-21T07:52:06.172Z,22.25
2023-05-21T07:54:38.055Z,22.17
2023-05-21T07:57:10.335Z,22.08
2023-05-21T08:03:00.127Z,22.09
2023-05-21T08:05:33.404Z,22.08
2023-05-21T08:08:06.085Z,22.07
2023-05-21T08:10:38.420Z,22.00
2023-05-21T08:13:11.227Z,21.97
2023-05-21T08:15:43.078Z,21.99
2023-05-21T08:18:19.312Z,21.96
2023-05-21T08:21:04.237Z,21.94
2023-05-21T08:23:37.490Z,22.02
2023-05-21T08:26:11.870Z,22.14
2023-05-21T08:28:44.238Z,22.20
2023-05-21T08:31:18.956Z,22.15
2023-05-21T08:33:54.429Z,22.14
2023-05-21T08:36:30.085Z,22.15
2023-05-21T08:39:06.757Z,22.17
2023-05-21T08:41:42.719Z,22.12
2023-05-21T08:44:15.089Z,22.06
2023-05-21T08:46:50.722Z,22.12
2023-05-21T08:49:27.850Z,22.23
2023-05-21T08:52:01.453Z,22.27
2023-05-21T08:54:33.308Z,22.33
2023-05-21T08:57:06.448Z,22.33
2023-05-21T08:59:43.177Z,22.37
2023-05-21T09:02:18.262Z,22.39
2023-05-21T09:04:50.914Z,22.37
2023-05-21T09:07:23.163Z,22.35
2023-05-21T09:10:15.528Z,22.32
2023-05-21T09:12:48.899Z,22.33
2023-05-21T09:15:21.236Z,22.39
2023-05-21T09:17:53.688Z,22.39
2023-05-21T09:21:26.837Z,22.48
2023-05-21T09:24:02.585Z,22.62
2023-05-21T09:26:35.647Z,22.60
2023-05-21T09:29:09.499Z,22.57
2023-05-21T09:31:46.108Z,22.49
2023-05-21T09:34:18.787Z,22.45
2023-05-21T09:36:58.211Z,22.49
2023-05-21T09:39:33.494Z,22.56
2023-05-21T09:42:07.720Z,22.58
2023-05-21T09:44:40.147Z,22.56
2023-05-21T09:47:13.240Z,22.54
2023-05-21T09:49:46.454Z,22.53
2023-05-21T09:52:26.379Z,22.54
2023-05-21T09:54:58.517Z,22.58
2023-05-21T09:57:30.304Z,22.62
2023-05-21T10:00:02.144Z,22.65
2023-05-21T10:02:37.682Z,22.59
2023-05-21T10:05:11.427Z,22.56
2023-05-21T10:07:46.291Z,22.59
2023-05-21T10:10:20.583Z,22.62
2023-05-21T10:12:56.324Z,22.67
2023-05-21T10:15:32.559Z,22.77
2023-05-21T10:18:04.738Z,22.78
2023-05-21T10:20:38.186Z,22.88
2023-05-21T10:23:10.576Z,22.89
2023-05-21T10:25:42.958Z,22.90
2023-05-21T10:28:19.010Z,22.86
2023-05-21T10:30:50.825Z,22.84
2023-05-21T10:33:24.058Z,22.83
2023-05-21T10:35:59.363Z,22.85
2023-05-21T10:38:33.247Z,22.82
2023-05-21T10:41:06.629Z,22.78
2023-05-21T10:43:58.315Z,22.86
2023-05-21T10:46:44.441Z,22.93
2023-05-21T10:49:38.183Z,22.92
2023-05-21T10:52:20.376Z,22.92
2023-05-21T10:55:08.761Z,22.89
2023-05-21T10:58:00.491Z,22.93
2023-05-21T11:00:32.867Z,22.83
2023-05-21T11:03:06.456Z,22.73
2023-05-21T11:05:55.163Z,22.69
2023-05-21T11:08:31.571Z,22.72
2023-05-21T11:11:03.730Z,22.75
2023-05-21T11:13:49.866Z,22.82
2023-05-21T11:16:25.892Z,22.91
2023-05-21T11:19:04.211Z,22.91
2023-05-21T11:21:37.641Z,22.86
2023-05-21T11:24:10.972Z,22.91
2023-05-21T11:27:04.342Z,22.97
2023-05-21T11:29:41.447Z,22.94
2023-05-21T11:32:15.572Z,22.97
2023-05-21T11:34:48.203Z,23.09
2023-05-21T11:37:30.524Z,23.13
2023-05-21T11:40:19.822Z,23.07
2023-05-21T11:42:55.985Z,23.03
2023-05-21T11:45:31.861Z,23.03
2023-05-21T11:48:04.529Z,23.02
2023-05-21T11:50:37.596Z,23.05
2023-05-21T11:53:12.323Z,23.08
2023-05-21T11:55:48.369Z,23.06
2023-05-21T11:58:23.728Z,23.00
2023-05-21T12:00:58.310Z,23.00
2023-05-21T12:03:30.496Z,22.98
2023-05-21T12:06:09.251Z,22.98
2023-05-21T12:08:40.978Z,23.07
2023-05-21T12:11:12.574Z,23.18
2023-05-21T12:13:44.287Z,23.18
2023-05-21T12:16:17.088Z,23.24
2023-05-21T12:18:48.722Z,23.21
2023-05-21T12:21:20.669Z,23.16
2023-05-21T12:23:52.238Z,23.17
2023-05-21T12:26:25.410Z,23.15
2023-05-21T12:28:57.938Z,23.19
2023-05-21T12:31:32.940Z,23.22
2023-05-21T12:34:04.805Z,23.27
2023-05-21T12:36:38.125Z,23.33
2023-05-21T12:39:11.376Z,23.28
2023-05-21T12:41:43.687Z,23.28
2023-05-21T12:44:15.332Z,23.33
2023-05-21T12:46:46.906Z,23.29
2023-05-21T12:49:38.714Z,23.24
2023-05-21T12:52:13.165Z,23.18
2023-05-21T12:54:47.243Z,23.11
2023-05-21T12:57:21.031Z,23.08
2023-05-21T12:59:56.502Z,23.10
2023-05-21T13:02:29.864Z,23.11
2023-05-21T13:05:04.950Z,23.09
2023-05-21T13:07:38.651Z,23.18
2023-05-21T13:10:12.260Z,23.30
2023-05-21T13:12:44.679Z,23.22
2023-05-21T13:15:16.991Z,23.17
2023-05-21T13:17:50.090Z,23.19
2023-05-21T13:20:26.211Z,23.21
2023-05-21T13:22:58.338Z,23.24
2023-05-21T13:25:30.106Z,23.25
2023-05-21T13:28:05.280Z,23.11
2023-05-21T13:30:37.318Z,23.03
2023-05-21T13:33:09.753Z,22.95
2023-05-21T13:35:41.732Z,22.91
2023-05-21T13:38:13.397Z,22.93
2023-05-21T13:40:45.048Z,22.89
2023-05-21T13:43:16.743Z,22.85
2023-05-21T13:45:50.167Z,22.87
2023-05-21T13:48:21.728Z,22.93
2023-05-21T13:50:53.372Z,22.94
2023-05-21T13:53:25.199Z,22.97
2023-05-21T13:55:56.753Z,22.98
2023-05-21T13:58:28.635Z,23.01
2023-05-21T14:01:00.237Z,23.03
2023-05-21T14:03:32.125Z,23.06
2023-05-21T14:06:03.761Z,23.00
2023-05-21T14:08:35.544Z,22.97
2023-05-21T14:11:07.564Z,22.95
2023-05-21T14:13:40.068Z,22.92
2023-05-21T14:16:12.933Z,22.97
2023-05-21T14:18:44.743Z,22.95
2023-05-21T14:21:16.469Z,22.92
2023-05-21T14:23:48.344Z,22.87
2023-05-21T14:26:20.666Z,22.84
2023-05-21T14:28:52.425Z,22.89
2023-05-21T14:31:25.072Z,22.93
2023-05-21T14:33:56.698Z,22.96
2023-05-21T14:36:28.309Z,23.03
2023-05-21T14:38:59.926Z,23.10
2023-05-21T14:41:31.996Z,23.06
2023-05-21T14:44:07.069Z,23.07
2023-05-21T14:46:46.570Z,23.04
2023-05-21T14:49:22.978Z,23.01
2023-05-21T14:51:57.829Z,22.98
2023-05-21T14:54:29.605Z,22.96
2023-05-21T14:57:01.572Z,22.96
2023-05-21T14:59:33.306Z,22.95
2023-05-21T15:02:05.226Z,22.95
2023-05-21T15:04:37.533Z,22.96
2023-05-21T15:07:10.589Z,23.00
2023-05-21T15:09:42.616Z,23.06
2023-05-21T15:12:15.093Z,23.03
2023-05-21T15:14:46.726Z,23.01
2023-05-21T15:17:24.962Z,22.97
2023-05-21T15:19:58.489Z,22.86
2023-05-21T15:22:36.333Z,22.81
2023-05-21T15:25:13.766Z,22.83
2023-05-21T15:27:45.923Z,22.86
2023-05-21T15:30:18.496Z,22.89
2023-05-21T15:32:52.157Z,22.96
2023-05-21T15:35:24.838Z,23.05
2023-05-21T15:37:58.697Z,23.04
2023-05-21T15:40:31.123Z,22.98
2023-05-21T15:43:03.066Z,22.94
2023-05-21T15:45:36.867Z,22.84
2023-05-21T15:48:10.103Z,22.84
2023-05-21T15:50:42.039Z,22.79
2023-05-21T15:53:19.299Z,22.71
2023-05-21T15:56:04.063Z,22.69
2023-05-21T15:58:37.244Z,22.65
2023-05-21T16:01:09.410Z,22.62
2023-05-21T16:03:41.973Z,22.60
2023-05-21T16:06:14.521Z,22.59
2023-05-21T16:08:46.659Z,22.64
2023-05-21T16:11:19.388Z,22.65
2023-05-21T16:13:51.892Z,22.64
2023-05-21T16:16:24.899Z,22.55
2023-05-21T16:19:02.554Z,22.47
2023-05-21T16:21:35.149Z,22.44
2023-05-21T16:24:09.410Z,22.38
2023-05-21T16:26:43.209Z,22.30
2023-05-21T16:29:16.920Z,22.21
2023-05-21T16:31:50.276Z,22.15
2023-05-21T16:34:22.476Z,22.07
2023-05-21T16:36:54.655Z,22.02
2023-05-21T16:39:26.677Z,22.01
2023-05-21T16:41:59.885Z,22.00
2023-05-21T16:44:32.444Z,21.97
2023-05-21T16:47:05.571Z,21.91
2023-05-21T16:49:37.372Z,21.84
2023-05-21T16:52:10.103Z,21.79
2023-05-21T16:54:48.327Z,21.72
2023-05-21T16:57:20.875Z,21.67
2023-05-21T16:59:55.151Z,21.60
2023-05-21T17:02:26.791Z,21.52
2023-05-21T17:04:58.748Z,21.47
2023-05-21T17:07:33.232Z,21.43
2023-05-21T17:10:06.166Z,21.39
2023-05-21T17:12:39.024Z,21.34
2023-05-21T17:15:12.895Z,21.29
2023-05-21T17:17:45.210Z,21.21
2023-05-21T17:20:17.824Z,21.14
2023-05-21T17:22:53.234Z,21.07
2023-05-21T17:25:25.708Z,21.02
2023-05-21T17:27:57.853Z,20.97
2023-05-21T17:30:29.897Z,20.91
2023-05-21T17:33:02.376Z,20.85
2023-05-21T17:35:34.934Z,20.77
2023-05-21T17:38:07.376Z,20.69
2023-05-21T17:40:41.052Z,20.61
2023-05-21T17:43:13.086Z,20.52
2023-05-21T17:45:45.444Z,20.45
2023-05-21T17:48:17.740Z,20.37
2023-05-21T17:50:50.115Z,20.31
2023-05-21T17:53:24.371Z,20.23
2023-05-21T17:55:56.042Z,20.16
2023-05-21T17:58:27.557Z,20.09
2023-05-21T18:00:59.356Z,20.02
2023-05-21T18:03:32.376Z,19.95
2023-05-21T18:06:08.093Z,19.88
2023-05-21T18:08:41.245Z,19.81
2023-05-21T18:11:13.001Z,19.73
2023-05-21T18:13:45.005Z,19.66
2023-05-21T18:16:16.948Z,19.58
2023-05-21T18:18:48.662Z,19.49
2023-05-21T18:21:20.296Z,19.42
2023-05-21T18:23:51.947Z,19.33
2023-05-21T18:26:23.654Z,19.25
2023-05-21T18:28:55.399Z,19.18
2023-05-21T18:31:28.310Z,19.10
2023-05-21T18:34:02.272Z,19.03
2023-05-21T18:36:38.814Z,18.94
2023-05-21T18:39:12.666Z,18.86
2023-05-21T18:41:44.475Z,18.79
2023-05-21T18:44:20.982Z,18.72
2023-05-21T18:46:53.793Z,18.63
2023-05-21T18:49:27.253Z,18.56
2023-05-21T18:51:59.635Z,18.50
2023-05-21T18:54:32.054Z,18.42
2023-05-21T18:57:11.150Z,18.35
2023-05-21T18:59:43.279Z,18.28
2023-05-21T19:02:15.002Z,18.21
2023-05-21T19:04:46.624Z,18.13
2023-05-21T19:07:18.225Z,18.07
2023-05-21T19:09:49.898Z,18.00
2023-05-21T19:12:22.031Z,17.94
2023-05-21T19:14:53.583Z,17.86
2023-05-21T19:17:25.972Z,17.79
2023-05-21T19:19:57.625Z,17.72
2023-05-21T19:22:30.808Z,17.66
2023-05-21T19:25:02.331Z,17.58
2023-05-21T19:27:33.953Z,17.53
2023-05-21T19:30:06.103Z,17.47
2023-05-21T19:32:37.725Z,17.41
2023-05-21T19:35:11.301Z,17.36
2023-05-21T19:37:43.062Z,17.30
2023-05-21T19:40:17.570Z,17.24
2023-05-21T19:42:49.201Z,17.17
2023-05-21T19:45:21.517Z,17.11
2023-05-21T19:47:53.214Z,17.05
2023-05-21T19:50:54.748Z,17.00
2023-05-21T19:53:36.834Z,16.94
2023-05-21T19:56:14.530Z,16.89
2023-05-21T19:58:48.087Z,16.83
2023-05-21T20:01:30.168Z,16.79
2023-05-21T20:04:11.064Z,16.74
2023-05-21T20:06:45.426Z,16.69
2023-05-21T20:09:18.061Z,16.66
2023-05-21T20:11:50.570Z,16.62
2023-05-21T20:14:22.720Z,16.56
2023-05-21T20:16:54.683Z,16.53
2023-05-21T20:19:27.290Z,16.48
2023-05-21T20:22:00.720Z,16.43
2023-05-21T20:24:40.331Z,16.39
2023-05-21T20:27:19.403Z,16.34
2023-05-21T20:29:51.739Z,16.29
2023-05-21T20:32:23.960Z,16.25
2023-05-21T20:35:03.787Z,16.20
2023-05-21T20:37:38.647Z,16.15
2023-05-21T20:40:14.867Z,16.10
2023-05-21T20:42:48.340Z,16.05
2023-05-21T20:45:20.985Z,16.00
2023-05-21T20:47:54.037Z,15.96
2023-05-21T20:50:26.063Z,15.90
2023-05-21T20:52:59.504Z,15.86
2023-05-21T20:55:34.595Z,15.81
2023-05-21T20:58:08.801Z,15.76
2023-05-21T21:00:45.698Z,15.72
2023-05-21T21:03:18.744Z,15.69
2023-05-21T21:05:50.957Z,15.65
2023-05-21T21:08:22.966Z,15.62
2023-05-21T21:10:54.701Z,15.59
2023-05-21T21:13:26.606Z,15.55
2023-05-21T21:15:58.334Z,15.51
2023-05-21T21:18:29.986Z,15.48
2023-05-21T21:21:01.716Z,15.44
2023-05-21T21:23:33.552Z,15.38
2023-05-21T21:26:05.177Z,15.34
2023-05-21T21:28:37.341Z,15.29
2023-05-21T21:31:08.968Z,15.25
2023-05-21T21:33:40.929Z,15.20
2023-05-21T21:36:14.186Z,15.17
2023-05-21T21:38:48.994Z,15.12
2023-05-21T21:41:22.493Z,15.08
2023-05-21T21:43:56.237Z,15.04
2023-05-21T21:46:30.989Z,14.99
2023-05-21T21:49:03.071Z,14.92
2023-05-21T21:51:35.296Z,14.89
2023-05-21T21:54:07.305Z,14.84
2023-05-21T21:56:39.101Z,14.80
2023-05-21T21:59:10.952Z,14.74
2023-05-21T22:01:43.279Z,14.70
2023-05-21T22:04:15.314Z,14.66
2023-05-21T22:06:46.956Z,14.60
2023-05-21T22:09:18.765Z,14.56
2023-05-21T22:11:50.774Z,14.51
2023-05-21T22:14:22.614Z,14.46
2023-05-21T22:16:55.633Z,14.42
2023-05-21T22:19:27.323Z,14.39
2023-05-21T22:21:59.882Z,14.35
2023-05-21T22:24:33.259Z,14.30
2023-05-21T22:27:05.456Z,14.25
2023-05-21T22:29:37.024Z,14.18
2023-05-21T22:32:09.070Z,14.15
2023-05-21T22:34:41.827Z,14.12
2023-05-21T22:37:13.431Z,14.10
2023-05-21T22:39:46.060Z,14.06
2023-05-21T22:42:21.375Z,14.04
2023-05-21T22:44:53.456Z,14.01
2023-05-21T22:47:26.706Z,13.97
2023-05-21T22:50:00.850Z,13.94
2023-05-21T22:52:34.365Z,13.89
2023-05-21T22:55:06.816Z,13.86
2023-05-21T22:57:41.197Z,13.81
2023-05-21T23:00:19.101Z,13.77
2023-05-21T23:02:53.953Z,13.72
2023-05-21T23:05:26.338Z,13.68
2023-05-21T23:07:57.882Z,13.65
2023-05-21T23:10:29.453Z,13.63
2023-05-21T23:13:01.280Z,13.61
2023-05-21T23:15:33.797Z,13.59
2023-05-21T23:18:07.565Z,13.57
2023-05-21T23:20:41.064Z,13.55
2023-05-21T23:23:13.241Z,13.53
2023-05-21T23:25:45.160Z,13.51
2023-05-21T23:28:16.869Z,13.47
2023-05-21T23:30:48.549Z,13.44
2023-05-21T23:33:20.265Z,13.41
2023-05-21T23:35:52.362Z,13.37
2023-05-21T23:38:24.358Z,13.32
2023-05-21T23:40:56.072Z,13.28
2023-05-21T23:43:31.583Z,13.21
2023-05-21T23:46:04.406Z,13.14
2023-05-21T23:48:43.588Z,13.06
2023-05-21T23:51:22.873Z,12.98
2023-05-21T23:53:55.065Z,12.91
2023-05-21T23:56:26.800Z,12.84
2023-05-21T23:58:58.780Z,12.77
